Time;durP1;ratioP1;P1;durP2;ratioP2;P2;SDS_P1;SDS_P2;PMS_P1;PMS_P2;Temp;Humidity;BMP_temperature;BMP_pressure;BME280_temperature;BME280_humidity;BME280_pressure;Samples;Min_cycle;Max_cycle;Signal;HPM_P1;HPM_P2
2022/05/10 00:02:16;;;;;;;7.20;3.80;;;;;;;12.85;47.47;101753.56;7395677;19;20023;-67
2022/05/10 00:04:48;;;;;;;6.88;3.90;;;;;;;12.80;47.60;101747.50;7394760;19;20019;-67
2022/05/10 00:07:20;;;;;;;4.93;3.55;;;;;;;12.77;47.98;101748.44;7395670;19;20018;-67
2022/05/10 00:09:49;;;;;;;4.63;3.97;;;;;;;12.73;47.89;101752.00;7395563;19;20350;-67
2022/05/10 00:12:24;;;;;;;5.95;4.07;;;;;;;12.63;48.19;101738.09;7395642;19;20039;-67
2022/05/10 00:14:52;;;;;;;6.68;4.07;;;;;;;12.67;48.29;101744.19;7394879;19;20031;-67
2022/05/10 00:17:27;;;;;;;7.18;4.40;;;;;;;12.64;48.43;101750.38;7395441;19;20031;-67
2022/05/10 00:19:55;;;;;;;6.28;3.30;;;;;;;12.61;48.58;101754.81;7395335;19;20470;-67
2022/05/10 00:22:26;;;;;;;11.75;4.15;;;;;;;12.58;48.59;101752.25;7395246;19;20018;-67
2022/05/10 00:24:54;;;;;;;6.82;3.85;;;;;;;12.55;48.90;101743.47;7393447;19;20498;-67
2022/05/10 00:27:22;;;;;;;8.27;4.05;;;;;;;12.52;48.99;101742.66;7395009;19;20027;-67
2022/05/10 00:29:50;;;;;;;5.85;4.15;;;;;;;12.47;49.37;101740.09;7394683;19;20497;-67
2022/05/10 00:32:19;;;;;;;6.75;4.28;;;;;;;12.43;49.51;101729.63;7394533;19;20366;-67
2022/05/10 00:34:47;;;;;;;5.93;4.00;;;;;;;12.37;49.78;101727.94;7393618;19;20477;-68
2022/05/10 00:37:17;;;;;;;5.60;3.83;;;;;;;12.33;50.18;101729.75;7394758;19;20018;-67
2022/05/10 00:39:48;;;;;;;6.28;4.43;;;;;;;12.27;50.36;101727.22;7395182;19;20035;-67
2022/05/10 00:42:19;;;;;;;6.22;4.07;;;;;;;12.21;50.54;101719.38;7394976;19;20046;-67
2022/05/10 00:44:52;;;;;;;8.90;4.32;;;;;;;12.15;50.95;101711.56;7393590;19;20018;-67
2022/05/10 00:47:27;;;;;;;6.07;4.00;;;;;;;12.10;51.03;101714.25;7395120;19;20015;-67
2022/05/10 00:50:00;;;;;;;5.47;4.20;;;;;;;12.05;51.06;101708.19;7394432;19;20027;-67
2022/05/10 00:52:33;;;;;;;6.95;4.13;;;;;;;12.01;51.31;101712.59;7399141;19;20479;-67
2022/05/10 00:55:09;;;;;;;6.97;4.53;;;;;;;11.97;51.45;101699.53;7399410;19;20018;-66
2022/05/10 00:57:41;;;;;;;7.68;4.18;;;;;;;11.92;51.50;101704.81;7399370;19;20010;-66
2022/05/10 01:00:14;;;;;;;5.65;4.25;;;;;;;11.87;51.63;101701.34;7402234;19;20035;-67
2022/05/10 01:02:55;;;;;;;7.68;3.95;;;;;;;11.83;52.03;101700.53;7402264;19;20022;-66
2022/05/10 01:05:30;;;;;;;6.53;4.55;;;;;;;11.79;52.01;101697.94;7399401;19;20039;-67
2022/05/10 01:08:08;;;;;;;7.85;4.72;;;;;;;11.75;52.32;101697.09;7401980;19;20014;-67
2022/05/10 01:10:45;;;;;;;11.15;4.75;;;;;;;11.69;52.60;101684.91;7401149;19;20018;-67
2022/05/10 01:13:27;;;;;;;6.07;4.50;;;;;;;11.63;52.79;101684.13;7401978;19;20103;-68
2022/05/10 01:16:03;;;;;;;6.30;4.28;;;;;;;11.60;52.88;101678.88;7400689;19;20018;-67
2022/05/10 01:18:32;;;;;;;7.55;4.35;;;;;;;11.54;52.97;101671.94;7400190;19;20391;-68
2022/05/10 01:21:05;;;;;;;5.55;4.40;;;;;;;11.49;53.16;101674.59;7400417;19;20007;-67
2022/05/10 01:24:01;;;;;;;6.93;4.50;;;;;;;11.44;53.63;101663.28;7400120;19;20011;-68
2022/05/10 01:26:47;;;;;;;8.13;4.55;;;;;;;11.39;53.46;101663.31;7396075;19;20022;-67
2022/05/10 01:29:25;;;;;;;6.57;4.10;;;;;;;11.33;53.60;101658.13;7400566;19;20022;-68
2022/05/10 01:34:40;;;;;;;6.47;4.63;;;;;;;11.20;53.97;101653.91;7396943;19;20018;-68
2022/05/10 01:37:17;;;;;;;7.63;4.55;;;;;;;11.17;54.11;101657.44;7399885;19;20014;-68
2022/05/10 01:39:58;;;;;;;8.88;4.65;;;;;;;11.12;54.21;101646.09;7400164;19;20039;-68
2022/05/10 01:42:34;;;;;;;12.23;4.85;;;;;;;11.11;54.33;101657.47;7400185;19;20022;-68
2022/05/10 01:45:09;;;;;;;11.27;4.40;;;;;;;11.06;54.43;101651.41;7398024;19;20022;-67
2022/05/10 01:47:43;;;;;;;7.97;4.60;;;;;;;11.01;54.64;101637.44;7399211;19;20489;-67
2022/05/10 01:50:20;;;;;;;6.32;4.88;;;;;;;11.00;54.83;101651.47;7397203;19;20046;-67
2022/05/10 01:53:01;;;;;;;7.65;4.57;;;;;;;10.96;54.76;101647.13;7399855;19;20011;-67
2022/05/10 01:55:31;;;;;;;7.72;5.03;;;;;;;10.94;54.87;101646.25;7397353;19;20014;-67
2022/05/10 01:58:03;;;;;;;8.18;5.15;;;;;;;10.88;55.06;101642.81;7396661;19;20423;-67
2022/05/10 02:00:37;;;;;;;6.75;4.72;;;;;;;10.82;55.27;101632.34;7399661;19;20010;-67
2022/05/10 02:03:10;;;;;;;;;;;;;;;10.83;55.02;101639.34;7398849;19;20082;-68
2022/05/10 02:05:47;;;;;;;9.82;4.97;;;;;;;10.80;54.86;101641.97;7396824;19;19923;-68
2022/05/10 02:08:24;;;;;;;8.65;4.97;;;;;;;10.78;55.16;101633.28;7400112;19;20019;-69
2022/05/10 02:10:56;;;;;;;6.03;4.65;;;;;;;10.76;55.39;101641.13;7398393;19;20014;-68
2022/05/10 02:13:31;;;;;;;6.95;4.68;;;;;;;10.75;55.79;101641.16;7400032;19;20018;-67
2022/05/10 02:16:04;;;;;;;7.90;5.30;;;;;;;10.73;55.94;101642.94;7396799;19;20018;-67
2022/05/10 02:18:38;;;;;;;7.07;4.53;;;;;;;10.69;56.08;101641.19;7398123;19;20390;-67
2022/05/10 02:21:15;;;;;;;6.57;4.90;;;;;;;10.65;56.07;101640.34;7399009;19;20380;-66
2022/05/10 02:23:51;;;;;;;8.65;4.57;;;;;;;10.63;56.29;101636.00;7398319;19;20035;-66
2022/05/10 02:26:24;;;;;;;6.70;4.82;;;;;;;10.57;56.48;101632.53;7395978;19;20505;-66
2022/05/10 02:28:59;;;;;;;9.65;5.70;;;;;;;10.52;56.58;101630.84;7398610;19;20014;-66
2022/05/10 02:33:06;;;;;;;8.20;4.57;;;;;;;10.47;56.71;101630.88;7396362;19;20018;-66
2022/05/10 02:34:22;;;;;;;9.07;4.65;;;;;;;10.43;56.68;101629.16;7396257;19;20499;-67
2022/05/10 02:36:50;;;;;;;10.55;5.57;;;;;;;10.39;56.88;101625.69;7397470;19;20019;-66
2022/05/10 02:39:19;;;;;;;7.40;5.13;;;;;;;10.34;57.05;101632.69;7397543;19;20018;-66
2022/05/10 02:41:47;;;;;;;9.35;5.30;;;;;;;10.30;57.23;101638.84;7397729;19;20038;-66
2022/05/10 02:44:15;;;;;;;9.00;5.80;;;;;;;10.24;57.43;101637.09;7396745;19;20022;-66
2022/05/10 02:46:46;;;;;;;12.32;5.57;;;;;;;10.17;57.83;101635.38;7395675;19;20438;-66
2022/05/10 02:49:14;;;;;;;6.50;4.78;;;;;;;10.10;57.77;101631.94;7397929;19;20032;-66
2022/05/10 02:51:42;;;;;;;8.05;5.28;;;;;;;10.03;57.64;101624.13;7397327;19;20011;-66
2022/05/10 02:54:11;;;;;;;13.43;5.68;;;;;;;9.99;57.99;101628.50;7396601;19;20028;-66
2022/05/10 02:56:40;;;;;;;8.38;5.57;;;;;;;9.95;57.95;101622.41;7395835;19;20473;-66
2022/05/10 02:59:13;;;;;;;9.95;5.80;;;;;;;9.92;58.05;101625.03;7397170;19;20037;-66
2022/05/10 03:01:51;;;;;;;9.73;5.38;;;;;;;9.90;58.09;101623.31;7397233;19;20022;-66
2022/05/10 03:04:20;;;;;;;9.05;6.10;;;;;;;9.88;58.17;101622.44;7394866;19;20520;-66
2022/05/10 03:06:48;;;;;;;6.53;5.07;;;;;;;9.85;58.18;101625.94;7395022;19;20022;-66
2022/05/10 03:09:17;;;;;;;8.75;5.80;;;;;;;9.81;58.52;101616.38;7396205;19;20509;-66
2022/05/10 03:11:46;;;;;;;8.73;5.53;;;;;;;9.80;58.67;101612.00;7396788;19;20014;-66
2022/05/10 03:14:14;;;;;;;9.98;5.50;;;;;;;9.78;58.60;101611.13;7393187;19;20026;-66
2022/05/10 03:16:42;;;;;;;7.78;5.82;;;;;;;9.77;58.74;101614.63;7396627;19;20018;-67
2022/05/10 03:19:16;;;;;;;8.68;5.75;;;;;;;9.76;58.78;101605.03;7396424;19;20014;-66
2022/05/10 03:21:45;;;;;;;7.90;5.15;;;;;;;9.74;58.90;101610.28;7396786;19;20023;-66
2022/05/10 03:24:13;;;;;;;8.70;5.85;;;;;;;9.71;59.15;101607.66;7394438;19;20032;-66
2022/05/10 03:26:47;;;;;;;11.65;5.20;;;;;;;9.70;59.25;101610.28;7394681;19;20014;-66
2022/05/10 03:29:15;;;;;;;11.88;5.75;;;;;;;9.66;59.22;101609.44;7396442;19;20028;-66
2022/05/10 03:31:44;;;;;;;10.55;5.82;;;;;;;9.64;59.32;101605.94;7395882;19;20022;-66
2022/05/10 03:36:56;;;;;;;11.63;6.90;;;;;;;9.58;59.46;101604.22;7395732;19;20014;-66
2022/05/10 03:39:24;;;;;;;9.88;6.15;;;;;;;9.55;59.74;101608.59;7393537;19;20018;-66
2022/05/10 03:41:52;;;;;;;11.55;6.32;;;;;;;9.54;59.86;101605.13;7395183;19;20027;-66
2022/05/10 03:44:20;;;;;;;9.88;6.13;;;;;;;9.50;59.70;101606.00;7394550;19;20022;-66
2022/05/10 03:46:49;;;;;;;10.98;6.70;;;;;;;9.48;59.94;101596.41;7393728;19;20027;-66
2022/05/10 03:49:20;;;;;;;7.97;5.78;;;;;;;9.44;59.76;101601.66;7395529;19;20014;-66
2022/05/10 03:51:48;;;;;;;12.32;6.45;;;;;;;9.44;59.84;101599.03;7395568;19;20014;-66
2022/05/10 03:54:16;;;;;;;7.32;6.18;;;;;;;9.43;59.76;101596.44;7393230;19;20018;-67
2022/05/10 03:56:44;;;;;;;6.80;5.80;;;;;;;9.44;59.87;101600.81;7394092;19;20015;-66
2022/05/10 03:59:12;;;;;;;11.18;6.15;;;;;;;9.42;59.93;101607.78;7392685;19;20346;-65
2022/05/10 04:01:41;;;;;;;13.05;7.22;;;;;;;9.42;59.93;101592.06;7394780;19;20035;-65
2022/05/10 04:04:09;;;;;;;9.60;6.57;;;;;;;9.40;59.98;101594.69;7394050;19;20027;-66
2022/05/10 04:06:40;;;;;;;11.70;7.43;;;;;;;9.41;60.05;101593.78;7393549;19;20035;-66
2022/05/10 04:09:08;;;;;;;10.00;6.75;;;;;;;9.42;59.99;101594.69;7393204;19;20029;-66
2022/05/10 04:11:37;;;;;;;11.10;7.22;;;;;;;9.43;60.11;101596.44;7394363;19;20026;-66
2022/05/10 04:14:05;;;;;;;18.55;8.38;;;;;;;9.45;60.12;101589.41;7394215;19;20038;-66
2022/05/10 04:16:33;;;;;;;13.30;7.18;;;;;;;9.46;60.32;101585.94;7394640;19;20021;-66
2022/05/10 04:19:01;;;;;;;12.07;6.38;;;;;;;9.49;60.19;101585.94;7394302;19;20023;-66
2022/05/10 04:21:29;;;;;;;15.23;6.90;;;;;;;9.52;60.36;101582.44;7392542;19;20028;-66
2022/05/10 04:24:00;;;;;;;11.52;6.57;;;;;;;9.56;60.33;101578.91;7393545;19;20028;-66
2022/05/10 04:26:28;;;;;;;13.30;6.70;;;;;;;9.58;60.50;101585.88;7397720;19;20014;-66
2022/05/10 04:28:57;;;;;;;12.88;7.28;;;;;;;9.61;60.30;101587.63;7400650;19;20018;-66
2022/05/10 04:31:26;;;;;;;10.85;7.50;;;;;;;9.66;60.44;101590.22;7401219;19;20038;-66
2022/05/10 04:33:54;;;;;;;9.13;6.07;;;;;;;9.69;60.46;101585.84;7399632;19;20031;-66
2022/05/10 04:36:24;;;;;;;11.73;6.53;;;;;;;9.74;60.51;101591.94;7400576;19;20363;-66
2022/05/10 04:38:53;;;;;;;11.05;6.68;;;;;;;9.77;60.53;101583.19;7398827;19;20022;-66
2022/05/10 04:41:27;;;;;;;11.55;6.57;;;;;;;9.83;60.44;101579.66;7399025;19;20039;-66
2022/05/10 04:43:57;;;;;;;10.68;6.55;;;;;;;9.88;60.44;101580.50;7401175;19;20377;-66
2022/05/10 04:46:26;;;;;;;10.43;6.22;;;;;;;9.92;60.57;101577.88;7398617;19;20022;-66
2022/05/10 04:48:55;;;;;;;8.73;5.78;;;;;;;9.99;60.68;101580.44;7398147;19;20018;-66
2022/05/10 04:51:23;;;;;;;10.60;5.60;;;;;;;10.04;60.67;101570.81;7400770;19;20035;-66
2022/05/10 04:53:51;;;;;;;9.55;5.63;;;;;;;10.08;60.67;101577.75;7398073;19;20023;-65
2022/05/10 04:56:19;;;;;;;10.15;5.95;;;;;;;10.15;60.46;101575.97;7396963;19;20031;-66
2022/05/10 04:58:51;;;;;;;8.48;5.55;;;;;;;10.22;60.42;101578.56;7400019;19;20019;-66
2022/05/10 05:01:22;;;;;;;7.88;5.07;;;;;;;10.26;60.13;101572.41;7398220;19;20011;-65
2022/05/10 05:03:51;;;;;;;8.80;5.55;;;;;;;10.33;60.07;101567.13;7398945;19;20015;-66
2022/05/10 05:06:20;;;;;;;5.78;4.93;;;;;;;10.38;59.97;101565.34;7397229;19;20015;-69
2022/05/10 05:08:48;;;;;;;9.02;5.72;;;;;;;10.45;59.89;101571.41;7398160;19;20505;-66
2022/05/10 05:11:16;;;;;;;7.55;4.95;;;;;;;10.51;59.62;101571.38;7396872;19;20021;-66
2022/05/10 05:13:45;;;;;;;6.78;5.13;;;;;;;10.56;59.51;101569.56;7399563;19;20022;-66
2022/05/10 05:16:16;;;;;;;8.38;5.75;;;;;;;10.64;59.47;101570.41;7399835;19;20019;-66
2022/05/10 05:18:44;;;;;;;7.70;5.30;;;;;;;10.71;59.27;101573.81;7396603;19;20031;-66
2022/05/10 05:21:12;;;;;;;9.52;5.38;;;;;;;10.78;59.12;101570.28;7396677;19;20018;-67
2022/05/10 05:23:40;;;;;;;7.85;5.45;;;;;;;10.85;59.12;101569.31;7398504;19;20015;-65
2022/05/10 05:26:08;;;;;;;11.35;5.13;;;;;;;10.93;59.08;101563.97;7399286;19;20022;-67
2022/05/10 05:28:37;;;;;;;9.75;5.45;;;;;;;11.00;59.11;101575.31;7396662;19;20025;-67
2022/05/10 05:31:06;;;;;;;6.03;4.80;;;;;;;11.08;59.25;101565.56;7399140;19;20019;-67
2022/05/10 05:33:36;;;;;;;10.65;5.00;;;;;;;11.17;58.95;101568.13;7398372;19;20014;-66
2022/05/10 05:36:05;;;;;;;10.98;5.45;;;;;;;11.26;58.76;101572.41;7397759;19;20074;-66
2022/05/10 05:38:33;;;;;;;9.43;5.10;;;;;;;11.33;58.82;101563.53;7395400;19;20018;-66
2022/05/10 05:41:02;;;;;;;7.78;4.70;;;;;;;11.43;58.69;101568.72;7395652;19;20510;-65
2022/05/10 05:43:30;;;;;;;10.82;5.15;;;;;;;11.52;58.75;101558.94;7398051;19;20018;-66
2022/05/10 05:45:58;;;;;;;8.75;4.85;;;;;;;11.62;58.72;101557.06;7396446;19;20022;-66
2022/05/10 05:48:27;;;;;;;8.10;5.22;;;;;;;11.72;58.79;101555.19;7398959;19;20019;-66
2022/05/10 05:50:57;;;;;;;8.90;5.15;;;;;;;11.82;58.55;101554.16;7398480;19;20007;-66
2022/05/10 05:53:26;;;;;;;12.75;5.07;;;;;;;11.93;58.67;101561.91;7398884;19;20123;-65
2022/05/10 05:55:54;;;;;;;13.85;6.85;;;;;;;12.03;58.52;101553.03;7396335;19;20025;-66
2022/05/10 05:58:22;;;;;;;9.77;6.82;;;;;;;12.15;58.49;101548.47;7395534;19;20007;-66
2022/05/10 06:00:50;;;;;;;14.52;7.93;;;;;;;12.28;58.57;101549.16;7398727;19;20019;-65
2022/05/10 06:03:19;;;;;;;6.80;5.18;;;;;;;12.39;58.39;101539.31;7395308;19;20476;-66
2022/05/10 06:05:49;;;;;;;13.85;4.97;;;;;;;12.53;58.35;101544.34;7397491;19;20010;-66
2022/05/10 06:08:20;;;;;;;10.75;5.35;;;;;;;12.66;58.30;101545.88;7396482;19;20035;-67
2022/05/10 06:10:57;;;;;;;8.82;5.72;;;;;;;12.80;58.20;101550.00;7395284;19;20484;-66
2022/05/10 06:13:26;;;;;;;7.57;4.03;;;;;;;12.94;57.90;101545.38;7395876;19;20026;-65
2022/05/10 06:15:54;;;;;;;9.80;5.60;;;;;;;13.08;57.86;101542.47;7395059;19;20026;-66
2022/05/10 06:18:22;;;;;;;6.93;4.95;;;;;;;13.23;57.77;101545.69;7398104;19;20028;-66
2022/05/10 06:20:52;;;;;;;6.68;4.50;;;;;;;13.37;57.54;101538.44;7395580;19;20363;-66
2022/05/10 06:23:23;;;;;;;8.23;4.32;;;;;;;13.54;57.17;101539.84;7396190;19;20022;-66
2022/05/10 06:25:51;;;;;;;7.68;4.10;;;;;;;13.66;57.05;101532.53;7394218;19;20018;-66
2022/05/10 06:28:20;;;;;;;7.68;4.63;;;;;;;13.83;56.96;101526.00;7396085;19;20031;-66
2022/05/10 06:30:48;;;;;;;8.13;4.68;;;;;;;14.00;56.51;101528.22;7394427;19;20027;-66
2022/05/10 06:33:16;;;;;;;11.07;5.68;;;;;;;14.14;56.45;101528.78;7396398;19;20014;-66
2022/05/10 06:35:45;;;;;;;11.98;5.38;;;;;;;14.29;56.32;101534.59;7394443;19;20022;-66
2022/05/10 06:38:24;;;;;;;9.65;4.18;;;;;;;14.44;55.77;101531.56;7396472;19;20046;-66
2022/05/10 06:40:55;;;;;;;9.57;5.63;;;;;;;14.60;55.94;101531.19;7396516;19;20082;-66
2022/05/10 06:43:24;;;;;;;9.48;4.35;;;;;;;14.74;55.56;101529.06;7397334;19;20394;-66
2022/05/10 06:45:54;;;;;;;6.75;4.07;;;;;;;14.89;55.10;101527.78;7395225;19;20014;-66
2022/05/10 06:48:22;;;;;;;9.02;3.78;;;;;;;15.03;54.91;101532.69;7396365;19;20021;-65
2022/05/10 06:50:50;;;;;;;8.57;4.15;;;;;;;15.16;54.43;101527.94;7394969;19;20032;-67
2022/05/10 06:53:18;;;;;;;7.15;4.00;;;;;;;15.30;54.48;101522.25;7396728;19;20019;-66
2022/05/10 06:55:46;;;;;;;6.07;3.33;;;;;;;15.40;54.14;101525.50;7394213;19;20505;-66
2022/05/10 06:58:17;;;;;;;7.90;3.95;;;;;;;15.52;54.14;101519.84;7394745;19;20023;-67
2022/05/10 07:00:45;;;;;;;4.72;3.30;;;;;;;15.62;53.95;101508.06;7397442;19;20019;-66
2022/05/10 07:03:16;;;;;;;8.60;3.60;;;;;;;15.72;53.56;101508.66;7396757;19;20018;-66
2022/05/10 07:05:45;;;;;;;8.90;3.65;;;;;;;15.80;53.23;101506.63;7394528;19;20485;-65
2022/05/10 07:08:13;;;;;;;7.07;3.60;;;;;;;15.90;53.02;101507.22;7394306;19;20027;-65
2022/05/10 07:10:42;;;;;;;8.25;4.32;;;;;;;15.97;52.85;101502.59;7394181;19;20022;-65
2022/05/10 07:13:11;;;;;;;9.95;4.57;;;;;;;16.06;52.35;101499.69;7396554;19;20485;-65
2022/05/10 07:15:42;;;;;;;5.90;4.38;;;;;;;16.14;52.17;101502.06;7394132;19;20032;-65
2022/05/10 07:18:10;;;;;;;10.35;5.82;;;;;;;16.22;52.21;101494.72;7396201;19;20046;-67
2022/05/10 07:20:38;;;;;;;8.02;3.70;;;;;;;16.31;51.77;101496.19;7393383;19;20480;-65
2022/05/10 07:23:07;;;;;;;5.93;4.10;;;;;;;16.39;51.57;101491.53;7395021;19;20036;-65
2022/05/10 07:25:35;;;;;;;9.40;4.30;;;;;;;16.48;51.47;101495.63;7393637;19;20495;-65
2022/05/10 07:28:05;;;;;;;7.95;3.67;;;;;;;16.59;51.00;101487.28;7393724;19;20019;-65
2022/05/10 07:30:34;;;;;;;6.85;3.63;;;;;;;16.67;51.16;101487.03;7393105;19;20401;-65
2022/05/10 07:33:05;;;;;;;5.78;3.42;;;;;;;16.78;50.60;101490.16;7395536;19;20035;-65
2022/05/10 07:38:17;;;;;;;5.80;3.28;;;;;;;17.01;50.25;101493.78;7395356;19;20190;-66
2022/05/10 07:40:53;;;;;;;6.82;4.18;;;;;;;17.12;50.42;101480.16;7395056;19;20018;-66
2022/05/10 07:43:22;;;;;;;9.82;3.63;;;;;;;17.24;50.02;101475.25;7395082;19;20031;-64
2022/05/10 07:45:54;;;;;;;5.00;2.80;;;;;;;17.37;49.69;101488.03;7394377;19;20014;-65
2022/05/10 07:48:24;;;;;;;7.60;4.30;;;;;;;17.50;49.44;101484.00;7393583;19;20015;-65
2022/05/10 07:50:53;;;;;;;9.35;5.57;;;;;;;17.62;49.50;101473.81;7395726;19;20015;-66
2022/05/10 07:53:21;;;;;;;6.93;3.70;;;;;;;17.76;49.17;101476.78;7395126;19;20039;-65
2022/05/10 07:55:50;;;;;;;9.13;3.17;;;;;;;17.89;48.82;101470.06;7393125;19;20022;-66
2022/05/10 07:58:18;;;;;;;9.45;4.22;;;;;;;18.04;48.43;101465.06;7392649;19;20353;-66
2022/05/10 08:00:47;;;;;;;6.85;3.35;;;;;;;18.20;48.38;101463.50;7393361;19;20023;-66
2022/05/10 08:03:20;;;;;;;5.10;3.10;;;;;;;18.35;47.80;101466.41;7393379;19;20015;-65
2022/05/10 08:05:50;;;;;;;6.55;2.83;;;;;;;18.51;47.40;101463.97;7393101;19;20018;-66
2022/05/10 08:08:20;;;;;;;10.35;2.97;;;;;;;18.65;46.78;101458.91;7393115;19;20026;-66
2022/05/10 08:10:50;;;;;;;8.73;3.33;;;;;;;18.80;45.67;101459.16;7394480;19;20421;-66
2022/05/10 08:13:20;;;;;;;7.22;2.92;;;;;;;18.94;45.34;101455.91;7394420;19;20007;-65
2022/05/10 08:15:50;;;;;;;5.40;3.08;;;;;;;19.07;44.36;101448.22;7394599;19;20108;-65
2022/05/10 08:18:19;;;;;;;7.32;2.40;;;;;;;19.20;44.26;101446.72;7392289;19;20042;-65
2022/05/10 08:20:51;;;;;;;8.40;2.88;;;;;;;19.34;43.87;101443.41;7394113;19;20014;-66
2022/05/10 08:23:21;;;;;;;3.67;2.40;;;;;;;19.45;43.37;101445.53;7391856;19;20037;-65
2022/05/10 08:25:50;;;;;;;5.60;2.65;;;;;;;19.55;42.99;101441.53;7391765;19;20038;-66
2022/05/10 08:28:18;;;;;;;7.40;2.70;;;;;;;19.64;42.43;101437.56;7391006;19;20509;-66
2022/05/10 08:30:47;;;;;;;5.15;2.90;;;;;;;19.73;42.57;101434.44;7393434;19;20022;-66
2022/05/10 08:33:20;;;;;;;6.38;1.95;;;;;;;19.83;41.62;101437.53;7393255;19;20033;-66
2022/05/10 08:35:52;;;;;;;5.65;3.08;;;;;;;19.92;41.14;101426.41;7392708;19;20015;-66
2022/05/10 08:38:20;;;;;;;6.88;2.40;;;;;;;20.02;40.90;101425.00;7391759;19;20015;-66
2022/05/10 08:40:55;;;;;;;4.25;2.30;;;;;;;20.14;40.83;101426.19;7392908;19;20096;-65
2022/05/10 08:43:25;;;;;;;5.97;3.10;;;;;;;20.26;40.73;101435.34;7393217;19;20028;-66
2022/05/10 08:45:54;;;;;;;5.55;3.17;;;;;;;20.35;40.79;101424.19;7391787;19;20014;-66
2022/05/10 08:48:26;;;;;;;8.15;2.38;;;;;;;20.45;40.35;101418.41;7391286;19;20023;-66
2022/05/10 08:50:59;;;;;;;4.10;2.22;;;;;;;20.52;40.33;101409.13;7393045;19;20517;-66
2022/05/10 08:53:27;;;;;;;4.50;2.20;;;;;;;20.60;39.91;101408.72;7391673;19;20035;-66
2022/05/10 08:56:02;;;;;;;5.03;2.33;;;;;;;20.66;39.42;101414.59;7391154;19;20014;-66
2022/05/10 08:58:46;;;;;;;10.70;3.97;;;;;;;20.74;39.16;101403.56;7391428;19;20026;-66
2022/05/10 09:01:16;;;;;;;;;;;;;;;20.80;38.75;101405.88;7394218;19;20015;-67
2022/05/10 09:03:50;;;;;;;6.25;2.25;;;;;;;20.88;39.20;101393.91;7392675;19;19923;-66
2022/05/10 09:06:37;;;;;;;6.03;2.25;;;;;;;20.96;38.61;101395.22;7393689;19;20018;-66
2022/05/10 09:09:16;;;;;;;3.65;2.10;;;;;;;21.05;38.58;101393.00;7391121;19;20019;-66
2022/05/10 09:11:52;;;;;;;5.68;2.55;;;;;;;21.12;38.19;101384.56;7397194;19;20020;-65
2022/05/10 09:14:29;;;;;;;5.10;2.20;;;;;;;21.18;38.13;101374.50;7396802;19;20019;-65
2022/05/10 09:16:57;;;;;;;3.95;2.05;;;;;;;21.27;38.06;101382.84;7399626;19;20019;-65
2022/05/10 09:19:43;;;;;;;6.03;2.25;;;;;;;21.35;37.92;101378.88;7397416;19;20018;-65
2022/05/10 09:22:23;;;;;;;18.15;3.53;;;;;;;21.40;37.82;101379.47;7400439;19;20014;-65
2022/05/10 09:24:56;;;;;;;6.35;2.25;;;;;;;21.49;37.30;101378.94;7398335;19;20015;-66
2022/05/10 09:27:31;;;;;;;8.60;3.25;;;;;;;21.55;37.69;101370.59;7397270;19;20040;-65
2022/05/10 09:29:59;;;;;;;5.43;2.10;;;;;;;21.61;37.26;101364.91;7396946;19;20015;-65
2022/05/10 09:35:14;;;;;;;3.90;1.77;;;;;;;21.76;36.99;101378.31;7397640;19;20086;-65
2022/05/10 09:37:52;;;;;;;8.10;2.20;;;;;;;21.83;36.63;101370.81;7396993;19;20032;-65
2022/05/10 09:40:32;;;;;;;4.85;2.50;;;;;;;21.90;36.46;101364.13;7399208;19;20014;-65
2022/05/10 09:43:21;;;;;;;3.28;1.70;;;;;;;21.94;36.12;101366.53;7398854;19;20015;-65
2022/05/10 09:46:06;;;;;;;5.43;2.40;;;;;;;21.99;35.24;101363.59;7398752;19;20046;-65
2022/05/10 09:48:35;;;;;;;9.65;2.00;;;;;;;22.03;36.28;101362.44;7397215;19;20014;-66
2022/05/10 09:51:22;;;;;;;4.80;2.13;;;;;;;22.10;35.90;101354.91;7398678;19;20031;-66
2022/05/10 09:53:54;;;;;;;5.18;2.30;;;;;;;22.14;36.32;101356.47;7398856;19;20025;-67
2022/05/10 09:56:40;;;;;;;7.82;3.08;;;;;;;22.19;35.72;101350.81;7399345;19;20018;-66
2022/05/10 09:59:30;;;;;;;3.90;2.50;;;;;;;22.25;35.74;101345.94;7398918;19;20393;-66
2022/05/10 10:02:00;;;;;;;5.05;2.33;;;;;;;22.33;36.29;101342.84;7398836;19;20089;-67
2022/05/10 10:04:33;;;;;;;4.25;2.28;;;;;;;22.40;36.11;101340.66;7397770;19;20034;-65
2022/05/10 10:07:08;;;;;;;5.45;2.28;;;;;;;22.48;36.22;101341.03;7398300;19;20022;-66
2022/05/10 10:09:40;;;;;;;6.07;2.42;;;;;;;22.56;35.64;101330.72;7398556;19;20018;-66
2022/05/10 10:12:16;;;;;;;4.85;2.15;;;;;;;22.64;35.37;101327.56;7396485;19;20014;-65
2022/05/10 10:14:47;;;;;;;2.90;1.90;;;;;;;22.72;35.84;101324.38;7397704;19;20011;-67
2022/05/10 10:17:23;;;;;;;3.90;2.30;;;;;;;22.81;34.76;101323.81;7395853;19;20484;-67
2022/05/10 10:19:55;;;;;;;2.63;1.88;;;;;;;22.88;34.93;101318.91;7397837;19;20387;-66
2022/05/10 10:22:30;;;;;;;4.03;2.72;;;;;;;22.97;34.76;101320.13;7394681;19;20019;-66
2022/05/10 10:25:06;;;;;;;6.60;2.40;;;;;;;23.00;33.65;101322.59;7395488;19;20014;-67
2022/05/10 10:27:38;;;;;;;4.25;2.25;;;;;;;23.09;34.08;101314.00;7396245;19;20023;-66
2022/05/10 10:30:12;;;;;;;2.88;2.13;;;;;;;23.16;33.72;101311.78;7394927;19;20484;-65
2022/05/10 10:32:46;;;;;;;3.47;2.25;;;;;;;23.22;33.34;101304.22;7397487;19;20018;-65
2022/05/10 10:35:20;;;;;;;6.40;2.78;;;;;;;23.24;32.21;101304.97;7395227;19;20495;-67
2022/05/10 10:37:53;;;;;;;2.58;1.92;;;;;;;23.30;32.25;101302.84;7397655;19;20031;-67
2022/05/10 10:40:31;;;;;;;4.90;2.35;;;;;;;23.36;33.09;101295.25;7397069;19;20011;-65
2022/05/10 10:43:08;;;;;;;5.30;2.30;;;;;;;23.46;32.56;101298.19;7395170;19;20022;-65
2022/05/10 10:45:43;;;;;;;4.28;2.13;;;;;;;23.54;32.97;101293.19;7394815;19;20018;-66
2022/05/10 10:48:29;;;;;;;4.75;3.00;;;;;;;23.65;32.53;101296.94;7396007;19;20035;-65
2022/05/10 10:50:58;;;;;;;5.45;2.50;;;;;;;23.74;32.50;101281.06;7396925;19;20023;-66
2022/05/10 10:53:29;;;;;;;3.40;2.15;;;;;;;23.85;32.82;101274.13;7394868;19;20018;-66
2022/05/10 10:56:23;;;;;;;4.78;2.10;;;;;;;23.98;32.19;101277.69;7397013;19;20031;-65
2022/05/10 10:58:59;;;;;;;;;;;;;;;24.11;31.90;101271.47;7394939;19;20010;-67
2022/05/10 11:01:46;;;;;;;3.58;2.38;;;;;;;24.24;31.13;101258.91;7397208;19;19923;-66
2022/05/10 11:04:32;;;;;;;7.38;2.80;;;;;;;24.38;31.49;101268.66;7395870;19;20015;-66
2022/05/10 11:07:00;;;;;;;5.13;2.60;;;;;;;24.51;31.84;101256.03;7394788;19;20018;-66
2022/05/10 11:09:47;;;;;;;6.53;2.95;;;;;;;24.62;30.90;101257.06;7393752;19;20375;-67
2022/05/10 11:12:43;;;;;;;4.45;2.22;;;;;;;24.74;31.24;101244.63;7394869;19;20011;-67
2022/05/10 11:15:27;;;;;;;5.63;2.67;;;;;;;24.85;30.93;101245.53;7394010;19;20018;-68
2022/05/10 11:18:08;;;;;;;6.47;2.33;;;;;;;24.96;31.02;101235.81;7394461;19;20031;-66
2022/05/10 11:20:46;;;;;;;3.80;2.15;;;;;;;25.12;30.66;101238.22;7395160;19;20367;-65
2022/05/10 11:23:27;;;;;;;4.40;2.67;;;;;;;25.27;30.41;101236.19;7393684;19;20031;-66
2022/05/10 11:26:22;;;;;;;4.07;3.05;;;;;;;25.44;29.88;101230.44;7393970;19;20038;-66
2022/05/10 11:29:12;;;;;;;3.80;2.15;;;;;;;25.63;29.60;101228.97;7393038;19;20123;-66
2022/05/10 11:31:46;;;;;;;4.47;2.60;;;;;;;25.78;29.33;101227.81;7392905;19;20019;-64
2022/05/10 11:34:45;;;;;;;3.13;2.38;;;;;;;25.95;28.87;101214.84;7391410;19;20018;-66
2022/05/10 11:37:18;;;;;;;4.88;2.30;;;;;;;26.14;28.60;101217.78;7392362;19;20480;-66
2022/05/10 11:40:18;;;;;;;6.72;2.60;;;;;;;26.31;27.15;101194.94;7393093;19;20019;-66
2022/05/10 11:42:58;;;;;;;3.83;2.38;;;;;;;26.46;27.68;101200.91;7395257;19;20087;-66
2022/05/10 11:46:01;;;;;;;4.60;2.38;;;;;;;26.58;27.22;101193.63;7392938;19;20036;-66
2022/05/10 11:48:53;;;;;;;2.72;1.90;;;;;;;26.67;26.83;101197.41;7393774;19;20018;-66
2022/05/10 11:51:56;;;;;;;4.32;2.25;;;;;;;26.70;26.97;101194.44;7393933;19;20022;-67
2022/05/10 11:54:43;;;;;;;4.60;2.42;;;;;;;26.74;26.68;101190.56;7390776;19;20031;-67
2022/05/10 11:57:15;;;;;;;4.03;2.05;;;;;;;26.80;27.12;101191.88;7392441;19;20369;-67
2022/05/10 11:59:45;;;;;;;3.70;2.05;;;;;;;26.83;26.77;101187.09;7395272;19;20018;-67
2022/05/10 12:02:48;;;;;;;4.13;2.83;;;;;;;26.82;26.29;101182.69;7393227;19;20015;-66
2022/05/10 12:05:24;;;;;;;7.55;2.30;;;;;;;26.81;26.64;101183.66;7392725;19;20019;-65